createdAt,value
2023-05-01T00:02:07.661Z,96.75
2023-05-01T00:06:54.762Z,96.74
2023-05-01T00:11:54.753Z,96.73
2023-05-01T00:16:54.764Z,96.73
2023-05-01T00:21:54.755Z,96.73
2023-05-01T00:26:54.767Z,96.72
2023-05-01T00:31:54.767Z,96.72
2023-05-01T00:36:54.809Z,96.71
2023-05-01T00:41:54.772Z,96.7
2023-05-01T00:46:54.761Z,96.69
2023-05-01T00:51:54.773Z,96.69
2023-05-01T00:56:54.763Z,96.68
2023-05-01T01:02:13.698Z,96.69
2023-05-01T01:06:54.825Z,96.68
2023-05-01T01:11:54.766Z,96.68
2023-05-01T01:16:54.779Z,96.67
2023-05-01T01:21:54.768Z,96.67
2023-05-01T01:26:54.781Z,96.67
2023-05-01T01:31:54.781Z,96.66
2023-05-01T01:36:54.782Z,96.67
2023-05-01T01:41:54.785Z,96.67
2023-05-01T01:46:54.774Z,96.67
2023-05-01T01:51:54.785Z,96.66
2023-05-01T01:56:54.776Z,96.66
2023-05-01T02:02:19.665Z,96.65
2023-05-01T02:06:54.788Z,96.65
2023-05-01T02:11:54.779Z,96.64
2023-05-01T02:16:54.790Z,96.64
2023-05-01T02:21:54.782Z,96.64
2023-05-01T02:26:54.793Z,96.64
2023-05-01T02:31:54.795Z,96.63
2023-05-01T02:36:54.795Z,96.63
2023-05-01T02:41:54.797Z,96.62
2023-05-01T02:46:54.787Z,96.61
2023-05-01T02:51:54.798Z,96.61
2023-05-01T02:56:54.789Z,96.6
2023-05-01T03:02:09.195Z,96.59
2023-05-01T03:06:54.801Z,96.59
2023-05-01T03:11:54.792Z,96.58
2023-05-01T03:16:54.803Z,96.59
2023-05-01T03:21:54.794Z,96.58
2023-05-01T03:26:54.805Z,96.57
2023-05-01T03:31:54.806Z,96.58
2023-05-01T03:36:54.808Z,96.57
2023-05-01T03:41:54.849Z,96.57
2023-05-01T03:46:54.800Z,96.56
2023-05-01T03:51:54.811Z,96.56
2023-05-01T03:56:54.802Z,96.56
2023-05-01T04:02:09.243Z,96.57
2023-05-01T04:06:54.814Z,96.56
2023-05-01T04:12:11.293Z,96.55
2023-05-01T04:16:54.816Z,96.55
2023-05-01T04:21:54.808Z,96.55
2023-05-01T04:26:54.819Z,96.54
2023-05-01T04:31:54.810Z,96.54
2023-05-01T04:36:54.821Z,96.54
2023-05-01T04:41:54.822Z,96.54
2023-05-01T04:46:54.813Z,96.54
2023-05-01T04:51:54.826Z,96.54
2023-05-01T04:56:54.816Z,96.54
2023-05-01T05:01:54.827Z,96.54
2023-05-01T05:06:54.828Z,96.54
2023-05-01T05:11:54.829Z,96.54
2023-05-01T05:21:54.822Z,96.55
2023-05-01T05:26:54.833Z,96.54
2023-05-01T05:31:54.823Z,96.54
2023-05-01T05:36:54.835Z,96.54
2023-05-01T05:41:54.837Z,96.53
2023-05-01T05:46:54.828Z,96.54
2023-05-01T05:51:54.839Z,96.53
2023-05-01T05:56:54.830Z,96.53
2023-05-01T06:01:54.842Z,96.53
2023-05-01T06:07:11.322Z,96.53
2023-05-01T06:11:54.845Z,96.52
2023-05-01T06:16:54.847Z,96.52
2023-05-01T06:21:54.837Z,96.52
2023-05-01T06:26:54.849Z,96.52
2023-05-01T06:31:54.839Z,96.52
2023-05-01T06:36:54.851Z,96.52
2023-05-01T06:41:54.854Z,96.52
2023-05-01T06:46:54.844Z,96.52
2023-05-01T06:51:54.856Z,96.52
2023-05-01T06:56:54.847Z,96.53
2023-05-01T07:01:54.858Z,96.53
2023-05-01T07:06:54.860Z,96.53
2023-05-01T07:11:54.860Z,96.54
2023-05-01T07:16:54.912Z,96.53
2023-05-01T07:21:54.853Z,96.54
2023-05-01T07:26:54.865Z,96.53
2023-05-01T07:31:54.855Z,96.53
2023-05-01T07:36:54.891Z,96.53
2023-05-01T07:41:54.869Z,96.53
2023-05-01T07:46:54.872Z,96.54
2023-05-01T07:51:54.872Z,96.54
2023-05-01T07:56:54.862Z,96.53
2023-05-01T08:01:54.874Z,96.54
2023-05-01T08:06:54.865Z,96.54
2023-05-01T08:11:54.876Z,96.54
2023-05-01T08:16:54.879Z,96.55
2023-05-01T08:21:54.869Z,96.55
2023-05-01T08:26:54.882Z,96.56
2023-05-01T08:31:54.871Z,96.56
2023-05-01T08:36:54.883Z,96.56
2023-05-01T08:41:54.886Z,96.56
2023-05-01T08:46:54.886Z,96.55
2023-05-01T08:51:54.889Z,96.55
2023-05-01T08:56:54.879Z,96.55
2023-05-01T09:01:54.890Z,96.55
2023-05-01T09:06:54.881Z,96.55
2023-05-01T09:11:54.893Z,96.54
2023-05-01T09:16:54.896Z,96.55
2023-05-01T09:21:54.886Z,96.54
2023-05-01T09:26:54.899Z,96.55
2023-05-01T09:31:54.889Z,96.55
2023-05-01T09:36:54.901Z,96.55
2023-05-01T09:41:54.903Z,96.55
2023-05-01T09:46:54.904Z,96.54
2023-05-01T09:51:54.906Z,96.54
2023-05-01T09:56:54.896Z,96.53
2023-05-01T10:01:54.909Z,96.53
2023-05-01T10:06:54.899Z,96.53
2023-05-01T10:11:54.935Z,96.53
2023-05-01T10:16:54.914Z,96.52
2023-05-01T10:21:54.917Z,96.52
2023-05-01T10:26:54.917Z,96.51
2023-05-01T10:31:54.907Z,96.51
2023-05-01T10:36:54.920Z,96.5
2023-05-01T10:41:54.910Z,96.51
2023-05-01T10:46:54.923Z,96.51
2023-05-01T10:51:54.926Z,96.51
2023-05-01T10:56:54.916Z,96.51
2023-05-01T11:01:54.930Z,96.5
2023-05-01T11:06:54.920Z,96.5
2023-05-01T11:11:54.933Z,96.49
2023-05-01T11:16:54.935Z,96.49
2023-05-01T11:21:54.936Z,96.49
2023-05-01T11:26:54.939Z,96.48
2023-05-01T11:31:54.929Z,96.48
2023-05-01T11:36:54.942Z,96.47
2023-05-01T11:41:54.933Z,96.46
2023-05-01T11:46:54.947Z,96.45
2023-05-01T11:51:54.950Z,96.44
2023-05-01T11:56:54.940Z,96.45
2023-05-01T12:01:54.954Z,96.45
2023-05-01T12:06:54.946Z,96.45
2023-05-01T12:11:54.958Z,96.45
2023-05-01T12:16:54.961Z,96.45
2023-05-01T12:21:54.962Z,96.45
2023-05-01T12:26:54.965Z,96.46
2023-05-01T12:31:54.956Z,96.46
2023-05-01T12:36:54.970Z,96.45
2023-05-01T12:41:54.960Z,96.44
2023-05-01T12:46:54.973Z,96.44
2023-05-01T12:51:54.977Z,96.44
2023-05-01T12:56:54.968Z,96.43
2023-05-01T13:01:54.981Z,96.44
2023-05-01T13:06:54.971Z,96.44
2023-05-01T13:11:54.984Z,96.42
2023-05-01T13:16:54.976Z,96.42
2023-05-01T13:21:54.989Z,96.42
2023-05-01T13:26:55.056Z,96.43
2023-05-01T13:31:54.982Z,96.43
2023-05-01T13:36:55.041Z,96.43
2023-05-01T13:41:54.987Z,96.43
2023-05-01T13:47:11.477Z,96.42
2023-05-01T13:51:55.003Z,96.42
2023-05-01T13:56:55.005Z,96.41
2023-05-01T14:01:55.008Z,96.41
2023-05-01T14:06:54.998Z,96.41
2023-05-01T14:11:55.012Z,96.41
2023-05-01T14:16:55.002Z,96.41
2023-05-01T14:21:55.017Z,96.41
2023-05-01T14:26:55.019Z,96.41
2023-05-01T14:31:55.009Z,96.42
2023-05-01T14:36:55.024Z,96.43
2023-05-01T14:41:55.014Z,96.42
2023-05-01T14:46:55.028Z,96.41
2023-05-01T14:51:55.031Z,96.41
2023-05-01T14:56:55.033Z,96.4
2023-05-01T15:01:55.035Z,96.42
2023-05-01T15:06:55.026Z,96.42
2023-05-01T15:11:55.039Z,96.42
2023-05-01T15:16:55.030Z,96.41
2023-05-01T15:21:55.045Z,96.42
2023-05-01T15:26:55.047Z,96.42
2023-05-01T15:31:55.037Z,96.42
2023-05-01T15:36:55.052Z,96.43
2023-05-01T15:41:55.043Z,96.44
2023-05-01T15:46:55.056Z,96.45
2023-05-01T15:51:55.058Z,96.45
2023-05-01T15:56:55.061Z,96.45
2023-05-01T16:01:55.063Z,96.44
2023-05-01T16:06:55.053Z,96.43
2023-05-01T16:11:55.119Z,96.43
2023-05-01T16:16:55.057Z,96.43
2023-05-01T16:21:55.071Z,96.44
2023-05-01T16:26:55.073Z,96.45
2023-05-01T16:31:55.063Z,96.46
2023-05-01T16:36:55.077Z,96.47
2023-05-01T16:41:55.067Z,96.46
2023-05-01T16:46:55.081Z,96.47
2023-05-01T16:51:55.071Z,96.47
2023-05-01T16:56:55.085Z,96.47
2023-05-01T17:01:55.087Z,96.48
2023-05-01T17:06:55.077Z,96.48
2023-05-01T17:11:55.091Z,96.49
2023-05-01T17:16:55.081Z,96.49
2023-05-01T17:21:55.095Z,96.5
2023-05-01T17:26:55.097Z,96.49
2023-05-01T17:31:55.099Z,96.49
2023-05-01T17:36:55.101Z,96.5
2023-05-01T17:41:55.090Z,96.5
2023-05-01T17:46:55.103Z,96.51
2023-05-01T17:51:55.095Z,96.52
2023-05-01T17:56:55.108Z,96.53
2023-05-01T18:01:55.110Z,96.53
2023-05-01T18:06:55.100Z,96.53
2023-05-01T18:11:55.113Z,96.53
2023-05-01T18:16:55.103Z,96.54
2023-05-01T18:21:55.117Z,96.55
2023-05-01T18:26:55.118Z,96.56
2023-05-01T18:31:55.120Z,96.56
2023-05-01T18:36:55.122Z,96.57
2023-05-01T18:41:55.112Z,96.57
2023-05-01T18:46:55.150Z,96.58
2023-05-01T18:51:55.116Z,96.58
2023-05-01T18:56:55.129Z,96.59
2023-05-01T19:01:55.131Z,96.6
2023-05-01T19:06:55.132Z,96.61
2023-05-01T19:11:55.133Z,96.61
2023-05-01T19:16:55.124Z,96.61
2023-05-01T19:21:55.137Z,96.61
2023-05-01T19:26:55.128Z,96.62
2023-05-01T19:31:55.141Z,96.63
2023-05-01T19:36:55.142Z,96.63
2023-05-01T19:41:55.132Z,96.64
2023-05-01T19:46:55.146Z,96.65
2023-05-01T19:51:55.136Z,96.65
2023-05-01T19:56:55.149Z,96.66
2023-05-01T20:01:55.149Z,96.66
2023-05-01T20:06:55.152Z,96.66
2023-05-01T20:11:55.152Z,96.67
2023-05-01T20:16:55.143Z,96.68
2023-05-01T20:21:55.156Z,96.68
2023-05-01T20:26:55.147Z,96.69
2023-05-01T20:31:55.159Z,96.69
2023-05-01T20:36:55.160Z,96.69
2023-05-01T20:41:55.150Z,96.7
2023-05-01T20:46:55.165Z,96.7
2023-05-01T20:51:55.154Z,96.7
2023-05-01T20:56:55.167Z,96.71
2023-05-01T21:01:55.167Z,96.72
2023-05-01T21:06:55.170Z,96.72
2023-05-01T21:11:55.172Z,96.72
2023-05-01T21:16:55.161Z,96.73
2023-05-01T21:21:55.225Z,96.74
2023-05-01T21:27:11.641Z,96.74
2023-05-01T21:31:55.177Z,96.73
2023-05-01T21:36:55.177Z,96.73
2023-05-01T21:41:55.168Z,96.73
2023-05-01T21:46:55.180Z,96.74
2023-05-01T21:51:55.170Z,96.74
2023-05-01T21:56:55.184Z,96.74
2023-05-01T22:01:55.174Z,96.74
2023-05-01T22:06:55.186Z,96.75
2023-05-01T22:11:55.187Z,96.75
2023-05-01T22:16:55.177Z,96.75
2023-05-01T22:21:55.191Z,96.76
2023-05-01T22:26:55.181Z,96.76
2023-05-01T22:31:55.193Z,96.76
2023-05-01T22:36:55.193Z,96.76
2023-05-01T22:41:55.196Z,96.76
2023-05-01T22:46:55.198Z,96.76
2023-05-01T22:51:55.187Z,96.78
2023-05-01T22:56:55.200Z,96.78
2023-05-01T23:01:55.190Z,96.78
2023-05-01T23:06:55.202Z,96.78
2023-05-01T23:11:55.203Z,96.78
2023-05-01T23:16:55.194Z,96.78
2023-05-01T23:21:55.205Z,96.78
2023-05-01T23:26:55.196Z,96.79
2023-05-01T23:31:55.209Z,96.78
2023-05-01T23:36:55.209Z,96.79
2023-05-01T23:41:55.211Z,96.78
2023-05-01T23:46:55.212Z,96.78
2023-05-01T23:51:55.203Z,96.78
2023-05-01T23:56:55.215Z,96.77
